createdAt,value
2018-06-25T00:14:54.696Z,11.8
2018-06-25T00:15:54.868Z,11.9
2018-06-25T00:17:55.237Z,11.8
2018-06-25T00:36:58.889Z,11.9
2018-06-25T00:38:59.325Z,11.8
2018-06-25T00:40:59.651Z,11.9
2018-06-25T00:41:59.796Z,11.8
2018-06-25T00:48:00.978Z,11.9
2018-06-25T00:50:01.476Z,11.8
2018-06-25T00:51:01.429Z,11.9
2018-06-25T01:13:05.939Z,11.8
2018-06-25T01:14:06.077Z,11.9
2018-06-25T01:31:09.220Z,11.8
2018-06-25T01:32:09.390Z,11.9
2018-06-25T01:33:10.435Z,11.8
2018-06-25T02:00:15.401Z,11.9
2018-06-25T02:01:15.586Z,11.8
2018-06-25T02:02:15.745Z,11.9
2018-06-25T02:35:21.791Z,11.8
2018-06-25T02:36:21.957Z,11.9
2018-06-25T02:50:24.544Z,11.8
2018-06-25T02:55:25.501Z,11.9
2018-06-25T02:56:25.634Z,11.8
2018-06-25T02:57:25.841Z,11.9
2018-06-25T02:58:26.047Z,11.8
2018-06-25T03:01:26.610Z,11.9
2018-06-25T03:05:27.370Z,11.8
2018-06-25T03:06:27.544Z,11.9
2018-06-25T03:18:29.857Z,12
2018-06-25T03:29:31.904Z,12.1
2018-06-25T03:30:32.088Z,12
2018-06-25T03:31:32.264Z,12.1
2018-06-25T03:38:33.648Z,12.2
2018-06-25T03:47:35.226Z,12.4
2018-06-25T03:53:36.330Z,12.5
2018-06-25T03:54:36.545Z,12.4
2018-06-25T03:55:36.750Z,12.5
2018-06-25T04:01:37.776Z,12.6
2018-06-25T04:07:38.896Z,12.8
2018-06-25T04:13:40.051Z,12.9
2018-06-25T04:20:41.364Z,13
2018-06-25T04:25:42.174Z,13.1
2018-06-25T04:29:42.959Z,13.3
2018-06-25T04:33:43.656Z,13.4
2018-06-25T04:34:43.831Z,13.5
2018-06-25T04:37:44.487Z,13.6
2018-06-25T04:39:44.793Z,13.8
2018-06-25T04:42:45.396Z,13.9
2018-06-25T04:44:45.751Z,14
2018-06-25T04:46:46.139Z,14.1
2018-06-25T04:49:47.311Z,14.3
2018-06-25T04:53:48.056Z,14.4
2018-06-25T04:56:48.678Z,14.5
2018-06-25T04:59:49.238Z,14.6
2018-06-25T05:02:49.777Z,14.7
2018-06-25T05:11:51.496Z,14.9
2018-06-25T05:15:52.695Z,14.7
2018-06-25T05:16:52.844Z,14.9
2018-06-25T05:19:53.464Z,15
2018-06-25T05:21:53.851Z,15.1
2018-06-25T05:23:54.164Z,15.3
2018-06-25T05:24:54.342Z,15.4
2018-06-25T05:26:54.728Z,15.5
2018-06-25T05:28:55.118Z,15.6
2018-06-25T05:30:55.465Z,15.8
2018-06-25T05:32:55.804Z,15.9
2018-06-25T05:34:56.186Z,16
2018-06-25T05:35:56.402Z,16.1
2018-06-25T05:36:56.546Z,16.3
2018-06-25T05:38:56.910Z,16.4
2018-06-25T05:40:57.302Z,16.5
2018-06-25T05:41:57.480Z,16.6
2018-06-25T05:42:57.685Z,16.9
2018-06-25T05:43:57.903Z,17
2018-06-25T05:44:58.069Z,17.1
2018-06-25T05:45:58.278Z,17.2
2018-06-25T05:46:58.461Z,17.4
2018-06-25T05:47:58.668Z,17.5
2018-06-25T05:48:58.908Z,17.6
2018-06-25T05:49:59.014Z,17.8
2018-06-25T05:51:59.403Z,17.9
2018-06-25T05:53:59.754Z,18
2018-06-25T05:56:01.647Z,18.1
2018-06-25T05:57:01.615Z,18.3
2018-06-25T05:59:00.926Z,18.4
2018-06-25T06:00:01.179Z,18.5
2018-06-25T06:02:00.889Z,18.8
2018-06-25T06:03:01.432Z,18.9
2018-06-25T06:04:01.568Z,19
2018-06-25T06:05:01.037Z,19.1
2018-06-25T06:06:01.685Z,19.3
2018-06-25T06:07:01.994Z,19.4
2018-06-25T06:08:02.165Z,19.5
2018-06-25T06:09:01.613Z,19.6
2018-06-25T06:10:01.701Z,19.8
2018-06-25T06:11:02.318Z,19.9
2018-06-25T06:13:01.728Z,20.1
2018-06-25T06:14:01.492Z,20.3
2018-06-25T06:15:01.505Z,20.4
2018-06-25T06:16:01.593Z,20.5
2018-06-25T06:17:01.646Z,20.6
2018-06-25T06:18:01.758Z,20.5
2018-06-25T06:20:01.831Z,20.6
2018-06-25T06:21:01.899Z,20.5
2018-06-25T06:26:02.252Z,20.8
2018-06-25T06:27:02.301Z,20.9
2018-06-25T06:28:02.370Z,21
2018-06-25T06:29:02.392Z,21.2
2018-06-25T06:30:02.509Z,21.5
2018-06-25T06:31:02.539Z,21.8
2018-06-25T06:32:02.649Z,21.9
2018-06-25T06:33:02.681Z,22
2018-06-25T06:34:02.725Z,22.1
2018-06-25T06:36:02.828Z,22.2
2018-06-25T06:37:02.875Z,22.1
2018-06-25T06:38:02.941Z,22
2018-06-25T06:39:03.036Z,21.9
2018-06-25T06:40:03.128Z,21.6
2018-06-25T06:41:03.112Z,21.5
2018-06-25T06:43:03.312Z,21.2
2018-06-25T06:44:03.344Z,21.1
2018-06-25T06:45:03.411Z,21
2018-06-25T06:46:03.481Z,20.9
2018-06-25T06:47:03.513Z,20.8
2018-06-25T06:50:03.720Z,20.6
2018-06-25T06:51:03.803Z,20.8
2018-06-25T06:52:03.831Z,20.9
2018-06-25T06:53:03.914Z,21
2018-06-25T06:54:03.940Z,21.1
2018-06-25T06:56:04.082Z,21.2
2018-06-25T06:59:04.259Z,21.4
2018-06-25T07:00:04.353Z,21.5
2018-06-25T07:01:04.390Z,22.1
2018-06-25T07:02:05.022Z,22.6
2018-06-25T07:03:05.152Z,22.8
2018-06-25T07:05:05.277Z,22.6
2018-06-25T07:07:05.392Z,22.8
2018-06-25T07:08:05.451Z,22.5
2018-06-25T07:09:05.494Z,22.4
2018-06-25T07:10:05.514Z,22.2
2018-06-25T07:11:05.660Z,22.1
2018-06-25T07:12:05.904Z,22
2018-06-25T07:14:06.083Z,22.1
2018-06-25T07:15:06.213Z,22.2
2018-06-25T07:16:06.191Z,22.4
2018-06-25T07:17:06.264Z,22.6
2018-06-25T07:18:06.282Z,22.8
2018-06-25T07:19:06.370Z,22.9
2018-06-25T07:20:06.453Z,23
2018-06-25T07:21:06.531Z,23.1
2018-06-25T07:23:06.614Z,23
2018-06-25T07:29:07.008Z,22.9
2018-06-25T07:32:07.165Z,23.3
2018-06-25T07:33:07.234Z,23.9
2018-06-25T07:34:07.299Z,24.1
2018-06-25T07:35:07.391Z,24.4
2018-06-25T07:36:07.431Z,25.3
2018-06-25T07:37:07.472Z,25.4
2018-06-25T07:38:07.507Z,25.5
2018-06-25T07:39:07.594Z,25.6
2018-06-25T07:40:07.677Z,26.4
2018-06-25T07:42:07.758Z,26.1
2018-06-25T07:43:07.815Z,26
2018-06-25T07:44:07.879Z,25.9
2018-06-25T07:45:07.936Z,25.6
2018-06-25T07:46:08.040Z,25.4
2018-06-25T07:48:08.125Z,25.5
2018-06-25T07:49:08.231Z,26
2018-06-25T07:50:08.308Z,27.2
2018-06-25T07:51:08.312Z,27.4
2018-06-25T07:52:08.407Z,27.1
2018-06-25T07:53:08.442Z,26.9
2018-06-25T07:54:08.505Z,26.6
2018-06-25T07:55:08.599Z,26.5
2018-06-25T07:57:08.715Z,26.8
2018-06-25T07:59:08.822Z,26.4
2018-06-25T08:00:08.867Z,26.2
2018-06-25T08:01:08.926Z,26
2018-06-25T08:02:09.000Z,25.8
2018-06-25T08:03:09.816Z,25.5
2018-06-25T08:04:09.886Z,25.1
2018-06-25T08:05:09.930Z,24.9
2018-06-25T08:08:10.114Z,25.4
2018-06-25T08:09:10.183Z,25.3
2018-06-25T08:10:10.519Z,25
2018-06-25T08:13:10.908Z,25.3
2018-06-25T08:14:10.969Z,25.6
2018-06-25T08:15:11.101Z,27.2
2018-06-25T08:16:11.176Z,27.5
2018-06-25T08:17:11.195Z,27.6
2018-06-25T08:19:11.390Z,27.4
2018-06-25T08:20:11.405Z,27
2018-06-25T08:21:11.452Z,26.8
2018-06-25T08:22:11.518Z,26.5
2018-06-25T08:23:11.555Z,26.1
2018-06-25T08:24:11.628Z,25.8
2018-06-25T08:25:11.724Z,25.6
2018-06-25T08:27:11.783Z,25.8
2018-06-25T08:29:11.894Z,25.9
2018-06-25T08:34:12.310Z,26.2
2018-06-25T08:35:12.323Z,28.4
2018-06-25T08:36:12.360Z,30.6
2018-06-25T08:37:12.415Z,31
2018-06-25T08:38:12.508Z,32
2018-06-25T08:39:12.589Z,32.4
2018-06-25T08:40:12.634Z,31.9
2018-06-25T08:41:12.674Z,30.9
2018-06-25T08:42:12.730Z,30
2018-06-25T08:43:13.063Z,29.3
2018-06-25T08:44:13.157Z,28.6
2018-06-25T08:45:13.210Z,28.3
2018-06-25T08:46:13.292Z,28
2018-06-25T08:48:13.399Z,28.1
2018-06-25T08:50:13.532Z,28.5
2018-06-25T08:51:13.553Z,29
2018-06-25T08:52:13.648Z,29.1
2018-06-25T08:53:13.663Z,29.3
2018-06-25T08:56:13.871Z,30.1
2018-06-25T08:58:13.986Z,30.4
2018-06-25T08:59:14.052Z,31.8
2018-06-25T09:00:14.106Z,33.2
2018-06-25T09:02:15.500Z,33
2018-06-25T09:03:14.423Z,32.5
2018-06-25T09:04:14.343Z,31.6
2018-06-25T09:05:14.572Z,30.9
2018-06-25T09:06:14.523Z,30.1
2018-06-25T09:07:14.683Z,29.5
2018-06-25T09:08:15.228Z,28.9
2018-06-25T09:09:14.682Z,28.5
2018-06-25T09:10:14.748Z,28.3
2018-06-25T09:11:14.773Z,28.1
2018-06-25T09:12:14.848Z,28.5
2018-06-25T09:13:14.894Z,28.6
2018-06-25T09:14:14.970Z,29.5
2018-06-25T09:15:15.042Z,30.4
2018-06-25T09:16:15.091Z,32.2
2018-06-25T09:17:15.214Z,32.4
2018-06-25T09:18:15.253Z,31.5
2018-06-25T09:19:15.298Z,31.2
2018-06-25T09:20:15.379Z,30.6
2018-06-25T09:21:15.428Z,30.3
2018-06-25T09:22:15.478Z,29.9
2018-06-25T09:23:15.540Z,29.5
2018-06-25T09:24:15.600Z,29.1
2018-06-25T09:25:15.677Z,28.6
2018-06-25T09:26:16.058Z,28.3
2018-06-25T09:27:16.436Z,28
2018-06-25T09:28:16.134Z,27.8
2018-06-25T09:29:16.252Z,27.5
2018-06-25T09:32:16.426Z,28.3
2018-06-25T09:33:16.466Z,28.9
2018-06-25T09:34:16.553Z,30.4
2018-06-25T09:35:16.582Z,32.6
2018-06-25T09:36:16.699Z,33.9
2018-06-25T09:37:16.692Z,33.6
2018-06-25T09:38:18.089Z,33.1
2018-06-25T09:39:16.827Z,32.5
2018-06-25T09:40:16.875Z,31.9
2018-06-25T09:41:17.030Z,31.5
2018-06-25T09:42:17.010Z,31.1
2018-06-25T09:43:17.095Z,31
2018-06-25T09:46:17.294Z,30.8
2018-06-25T09:48:17.387Z,30.5
2018-06-25T09:49:17.448Z,30.3
2018-06-25T09:50:17.491Z,30
2018-06-25T09:51:17.570Z,29.6
2018-06-25T09:52:17.621Z,29.1
2018-06-25T09:53:17.737Z,28.6
2018-06-25T09:54:17.730Z,28.1
2018-06-25T09:55:18.278Z,27.6
2018-06-25T09:56:17.856Z,27.1
2018-06-25T09:57:17.913Z,26.8
2018-06-25T09:58:17.985Z,26.2
2018-06-25T09:59:18.037Z,25.8
2018-06-25T10:00:18.146Z,25.3
2018-06-25T10:01:18.232Z,24.9
2018-06-25T10:02:18.257Z,24.6
2018-06-25T10:03:18.281Z,24.5
2018-06-25T10:05:18.422Z,24.6
2018-06-25T10:07:18.588Z,24.7
2018-06-25T10:09:18.693Z,24.9
2018-06-25T10:10:18.756Z,25.1
2018-06-25T10:11:18.817Z,25.3
2018-06-25T10:12:18.874Z,25.4
2018-06-25T10:14:19.002Z,25.1
2018-06-25T10:15:19.067Z,25
2018-06-25T10:16:19.132Z,24.7
2018-06-25T10:17:19.183Z,24.4
2018-06-25T10:18:19.261Z,24.1
2018-06-25T10:19:19.342Z,24
2018-06-25T10:20:19.378Z,23.7
2018-06-25T10:21:19.523Z,23.6
2018-06-25T10:22:19.501Z,23.5
2018-06-25T10:23:19.564Z,23.4
2018-06-25T10:27:19.776Z,23.5
2018-06-25T10:28:19.824Z,23.7
2018-06-25T10:29:19.891Z,23.9
2018-06-25T10:30:19.945Z,24.3
2018-06-25T10:31:20.021Z,24.7
2018-06-25T10:32:20.153Z,25.3
2018-06-25T10:33:20.141Z,25.8
2018-06-25T10:34:20.296Z,26.6
2018-06-25T10:35:20.277Z,27.6
2018-06-25T10:36:20.349Z,28.9
2018-06-25T10:37:20.611Z,29.9
2018-06-25T10:38:20.447Z,30.1
2018-06-25T10:39:20.516Z,30
2018-06-25T10:40:20.742Z,29.9
2018-06-25T10:41:21.495Z,29.5
2018-06-25T10:42:21.585Z,29.1
2018-06-25T10:43:21.591Z,28.7
2018-06-25T10:44:21.625Z,28.4
2018-06-25T10:45:21.708Z,28
2018-06-25T10:46:21.746Z,27.6
2018-06-25T10:47:21.830Z,27.1
2018-06-25T10:48:21.895Z,26.6
2018-06-25T10:49:21.938Z,26.2
2018-06-25T10:50:21.995Z,26
2018-06-25T10:51:22.075Z,25.6
2018-06-25T10:52:22.112Z,25.4
2018-06-25T10:53:22.175Z,25
2018-06-25T10:54:22.264Z,24.7
2018-06-25T10:55:22.302Z,24.6
2018-06-25T10:57:22.435Z,24.7
2018-06-25T10:58:22.476Z,25
2018-06-25T10:59:22.645Z,25.1
2018-06-25T11:01:22.620Z,25.3
2018-06-25T11:02:22.691Z,25.5
2018-06-25T11:03:22.764Z,25.8
2018-06-25T11:04:22.863Z,26
2018-06-25T11:05:22.898Z,26.2
2018-06-25T11:06:23.021Z,26.5
2018-06-25T11:07:23.115Z,26.6
2018-06-25T11:08:23.076Z,26.8
2018-06-25T11:10:23.191Z,26.9
2018-06-25T11:11:23.309Z,27
2018-06-25T11:12:23.316Z,27.1
2018-06-25T11:13:23.422Z,27.2
2018-06-25T11:14:23.488Z,27.5
2018-06-25T11:15:23.553Z,27.9
2018-06-25T11:16:23.597Z,28.3
2018-06-25T11:17:23.695Z,28.7
2018-06-25T11:18:23.700Z,28.9
2018-06-25T11:19:23.759Z,29
2018-06-25T11:20:23.814Z,29.1
2018-06-25T11:21:23.886Z,29.3
2018-06-25T11:22:23.935Z,29.5
2018-06-25T11:23:23.997Z,29.8
2018-06-25T11:24:24.064Z,30
2018-06-25T11:25:24.123Z,30.3
2018-06-25T11:26:24.197Z,30.4
2018-06-25T11:27:24.354Z,30.5
2018-06-25T11:30:24.875Z,30.3
2018-06-25T11:31:24.967Z,30
2018-06-25T11:32:24.976Z,29.8
2018-06-25T11:33:25.038Z,29.6
2018-06-25T11:34:25.157Z,29.4
2018-06-25T11:35:25.177Z,29.1
2018-06-25T11:36:25.236Z,29
2018-06-25T11:37:25.305Z,29.1
2018-06-25T11:38:25.365Z,29
2018-06-25T11:43:25.636Z,29.1
2018-06-25T11:44:25.721Z,29.3
2018-06-25T11:45:25.836Z,29.4
2018-06-25T11:47:25.911Z,29.1
2018-06-25T11:48:25.978Z,28.9
2018-06-25T11:49:26.016Z,28.5
2018-06-25T11:50:26.075Z,28.1
2018-06-25T11:51:26.169Z,27.6
2018-06-25T11:52:26.209Z,27.1
2018-06-25T11:53:26.336Z,26.6
2018-06-25T11:54:26.384Z,26.1
2018-06-25T11:55:26.438Z,25.5
2018-06-25T11:56:26.494Z,25.1
2018-06-25T11:57:26.548Z,24.7
2018-06-25T11:58:26.619Z,24.6
2018-06-25T11:59:26.689Z,24.4
2018-06-25T12:00:26.750Z,24.1
2018-06-25T12:01:26.777Z,24
2018-06-25T12:05:27.020Z,24.3
2018-06-25T12:06:27.076Z,24.5
2018-06-25T12:07:27.138Z,24.7
2018-06-25T12:08:27.196Z,25.1
2018-06-25T12:09:27.297Z,25.5
2018-06-25T12:10:27.350Z,25.9
2018-06-25T12:11:27.442Z,26
2018-06-25T12:13:27.570Z,25.9
2018-06-25T12:17:27.807Z,25.8
2018-06-25T12:18:27.843Z,25.9
2018-06-25T12:19:27.912Z,26
2018-06-25T12:20:27.993Z,26.5
2018-06-25T12:21:28.028Z,26.9
2018-06-25T12:22:28.086Z,26.8
2018-06-25T12:23:28.166Z,26.4
2018-06-25T12:24:28.212Z,25.9
2018-06-25T12:25:28.356Z,25.4
2018-06-25T12:26:28.347Z,25
2018-06-25T12:27:28.408Z,24.7
2018-06-25T12:28:28.487Z,24.6
2018-06-25T12:29:28.536Z,24.5
2018-06-25T12:30:28.551Z,24.6
2018-06-25T12:32:28.670Z,24.9
2018-06-25T12:33:28.751Z,25
2018-06-25T12:34:28.813Z,25.3
2018-06-25T12:38:29.055Z,25.1
2018-06-25T12:44:29.425Z,25.3
2018-06-25T12:45:29.506Z,25.4
2018-06-25T12:46:29.604Z,25.6
2018-06-25T12:47:29.648Z,25.8
2018-06-25T12:48:29.812Z,26
2018-06-25T12:49:29.717Z,26.2
2018-06-25T12:50:29.783Z,26.5
2018-06-25T12:51:29.859Z,27
2018-06-25T12:52:29.925Z,27.5
2018-06-25T12:53:29.971Z,27.9
2018-06-25T12:54:30.028Z,27.8
2018-06-25T12:55:30.088Z,27.5
2018-06-25T12:56:30.163Z,26.9
2018-06-25T12:57:30.247Z,26.4
2018-06-25T12:58:30.276Z,25.9
2018-06-25T12:59:30.402Z,25.6
2018-06-25T13:00:30.472Z,25.5
2018-06-25T13:01:30.568Z,25.4
2018-06-25T13:02:30.563Z,25.5
2018-06-25T13:03:30.626Z,25.6
2018-06-25T13:04:30.641Z,25.9
2018-06-25T13:05:30.708Z,26.1
2018-06-25T13:06:30.815Z,26.5
2018-06-25T13:07:30.881Z,26.8
2018-06-25T13:08:30.933Z,27
2018-06-25T13:09:30.995Z,27.2
2018-06-25T13:11:31.125Z,27.1
2018-06-25T13:12:31.187Z,27
2018-06-25T13:13:31.229Z,26.8
2018-06-25T13:16:31.461Z,26.9
2018-06-25T13:17:31.492Z,27.1
2018-06-25T13:18:31.550Z,27.5
2018-06-25T13:19:31.592Z,27.9
2018-06-25T13:20:31.684Z,28.1
2018-06-25T13:21:31.722Z,28.3
2018-06-25T13:22:31.764Z,28.4
2018-06-25T13:23:31.831Z,28.5
2018-06-25T13:24:31.918Z,28.9
2018-06-25T13:25:32.018Z,29.1
2018-06-25T13:26:31.998Z,29.3
2018-06-25T13:27:32.080Z,29.5
2018-06-25T13:28:32.127Z,29.6
2018-06-25T13:29:32.185Z,29.9
2018-06-25T13:30:32.275Z,30
2018-06-25T13:31:32.380Z,30.1
2018-06-25T13:32:32.384Z,30.3
2018-06-25T13:33:32.485Z,30.4
2018-06-25T13:34:32.527Z,30.6
2018-06-25T13:35:32.594Z,31
2018-06-25T13:36:32.676Z,31.1
2018-06-25T13:37:32.692Z,31.4
2018-06-25T13:39:32.799Z,31.5
2018-06-25T13:41:33.052Z,31.4
2018-06-25T13:42:32.988Z,30.9
2018-06-25T13:43:33.043Z,30.3
2018-06-25T13:44:33.102Z,29.5
2018-06-25T13:45:33.236Z,28.7
2018-06-25T13:46:33.231Z,28.1
2018-06-25T13:47:33.327Z,27.5
2018-06-25T13:48:33.415Z,27
2018-06-25T13:49:33.471Z,26.5
2018-06-25T13:50:33.525Z,26
2018-06-25T13:51:33.578Z,25.6
2018-06-25T13:52:33.634Z,25.3
2018-06-25T13:53:33.748Z,24.9
2018-06-25T13:54:33.771Z,24.6
2018-06-25T13:58:34.883Z,24.7
2018-06-25T13:59:34.911Z,24.9
2018-06-25T14:00:35.045Z,25
2018-06-25T14:01:35.046Z,25.3
2018-06-25T14:02:35.084Z,25.4
2018-06-25T14:03:35.259Z,25.5
2018-06-25T14:05:35.294Z,25.6
2018-06-25T14:06:35.379Z,25.8
2018-06-25T14:07:35.430Z,26
2018-06-25T14:08:35.606Z,26.2
2018-06-25T14:09:35.547Z,26.6
2018-06-25T14:10:35.578Z,27.1
2018-06-25T14:11:35.644Z,27.5
2018-06-25T14:12:35.775Z,27.8
2018-06-25T14:13:35.794Z,27.9
2018-06-25T14:15:35.872Z,27.8
2018-06-25T14:16:36.085Z,27.9
2018-06-25T14:17:36.028Z,28
2018-06-25T14:18:36.065Z,28.1
2018-06-25T14:19:36.177Z,28.5
2018-06-25T14:20:36.281Z,28.9
2018-06-25T14:21:36.263Z,29.4
2018-06-25T14:22:36.373Z,29.8
2018-06-25T14:23:36.443Z,30
2018-06-25T14:24:36.536Z,30.1
2018-06-25T14:26:36.615Z,30
2018-06-25T14:27:36.650Z,30.1
2018-06-25T14:28:36.733Z,30.3
2018-06-25T14:31:36.915Z,30.4
2018-06-25T14:33:37.080Z,30.3
2018-06-25T14:34:37.087Z,30.1
2018-06-25T14:35:37.181Z,30
2018-06-25T14:36:37.249Z,29.9
2018-06-25T14:37:37.717Z,29.8
2018-06-25T14:38:37.785Z,29.9
2018-06-25T14:39:37.845Z,30
2018-06-25T14:40:37.974Z,30.4
2018-06-25T14:41:38.173Z,30.6
2018-06-25T14:42:38.153Z,30.9
2018-06-25T14:43:38.218Z,31.2
2018-06-25T14:44:38.334Z,31.9
2018-06-25T14:45:38.462Z,32.1
2018-06-25T14:46:38.450Z,32.5
2018-06-25T14:47:38.466Z,32.6
2018-06-25T14:48:38.525Z,32.5
2018-06-25T14:49:38.632Z,32.2
2018-06-25T14:50:38.687Z,31.9
2018-06-25T14:51:38.699Z,31.6
2018-06-25T14:52:38.823Z,31.5
2018-06-25T14:53:38.821Z,31.4
2018-06-25T14:54:38.940Z,31.2
2018-06-25T14:55:38.996Z,31
2018-06-25T14:56:39.013Z,30.8
2018-06-25T14:57:39.091Z,30.5
2018-06-25T14:58:39.183Z,30.4
2018-06-25T14:59:39.245Z,30.3
2018-06-25T15:00:39.378Z,30.1
2018-06-25T15:01:39.374Z,30
2018-06-25T15:02:39.406Z,29.8
2018-06-25T15:03:39.493Z,29.5
2018-06-25T15:04:39.545Z,29.4
2018-06-25T15:06:39.664Z,29
2018-06-25T15:07:39.724Z,28.6
2018-06-25T15:08:39.812Z,28.3
2018-06-25T15:09:39.859Z,28
2018-06-25T15:10:39.925Z,28.1
2018-06-25T15:11:40.017Z,28.4
2018-06-25T15:12:40.038Z,28.5
2018-06-25T15:13:40.148Z,28.6
2018-06-25T15:15:40.225Z,28.7
2018-06-25T15:16:40.302Z,28.6
2018-06-25T15:17:40.317Z,28.5
2018-06-25T15:20:40.534Z,28.7
2018-06-25T15:21:40.568Z,29.3
2018-06-25T15:22:40.614Z,30.9
2018-06-25T15:23:40.677Z,32.2
2018-06-25T15:24:40.744Z,33
2018-06-25T15:26:40.861Z,32.9
2018-06-25T15:27:40.927Z,32.7
2018-06-25T15:28:41.027Z,32.5
2018-06-25T15:29:41.117Z,33.6
2018-06-25T15:30:41.147Z,35
2018-06-25T15:31:41.213Z,34.4
2018-06-25T15:32:41.258Z,34.5
2018-06-25T15:33:41.337Z,33.9
2018-06-25T15:34:41.406Z,33.5
2018-06-25T15:35:41.430Z,33.9
2018-06-25T15:36:41.604Z,34
2018-06-25T15:37:41.577Z,33.1
2018-06-25T15:38:41.678Z,32.4
2018-06-25T15:39:41.690Z,31.6
2018-06-25T15:40:41.723Z,30.9
2018-06-25T15:41:41.820Z,30.3
2018-06-25T15:42:41.922Z,29.6
2018-06-25T15:43:41.921Z,29.3
2018-06-25T15:44:41.992Z,28.9
2018-06-25T15:45:42.069Z,28.6
2018-06-25T15:46:42.143Z,28.4
2018-06-25T15:47:42.201Z,28.1
2018-06-25T15:48:42.231Z,27.9
2018-06-25T15:49:42.282Z,27.6
2018-06-25T15:50:42.404Z,27.5
2018-06-25T15:51:42.434Z,27.4
2018-06-25T15:55:42.880Z,27.2
2018-06-25T15:58:43.050Z,27.4
2018-06-25T15:59:43.174Z,27.5
2018-06-25T16:01:43.204Z,27.4
2018-06-25T16:08:43.620Z,27.2
2018-06-25T16:11:43.800Z,27.4
2018-06-25T16:12:43.879Z,27.5
2018-06-25T16:14:43.987Z,27.4
2018-06-25T16:15:44.038Z,27.2
2018-06-25T16:16:44.153Z,27.1
2018-06-25T16:17:44.171Z,26.9
2018-06-25T16:18:44.289Z,26.8
2018-06-25T16:19:44.357Z,26.5
2018-06-25T16:20:44.396Z,26.1
2018-06-25T16:21:44.427Z,25.9
2018-06-25T16:24:44.613Z,26
2018-06-25T16:26:44.731Z,25.8
2018-06-25T16:27:44.804Z,25.4
2018-06-25T16:28:44.893Z,25.1
2018-06-25T16:29:44.945Z,25
2018-06-25T16:30:44.965Z,24.9
2018-06-25T16:36:45.398Z,25
2018-06-25T16:37:45.465Z,25.1
2018-06-25T16:41:45.693Z,25.3
2018-06-25T16:42:45.709Z,25.5
2018-06-25T16:44:45.899Z,25.4
2018-06-25T16:45:45.931Z,25.3
2018-06-25T16:47:46.019Z,25.1
2018-06-25T16:48:46.076Z,25
2018-06-25T16:49:46.200Z,24.9
2018-06-25T16:50:46.201Z,24.6
2018-06-25T16:51:46.308Z,24.4
2018-06-25T16:52:46.378Z,24.1
2018-06-25T16:53:46.387Z,24
2018-06-25T16:54:46.490Z,24.3
2018-06-25T16:56:46.636Z,24.6
2018-06-25T16:57:46.643Z,25.1
2018-06-25T16:58:46.736Z,25.4
2018-06-25T16:59:46.793Z,25.3
2018-06-25T17:00:46.840Z,25
2018-06-25T17:01:46.882Z,24.9
2018-06-25T17:03:47.019Z,24.7
2018-06-25T17:06:47.205Z,24.6
2018-06-25T17:08:47.369Z,24.5
2018-06-25T17:09:47.441Z,24.3
2018-06-25T17:10:47.601Z,24.1
2018-06-25T17:11:47.610Z,24
2018-06-25T17:12:47.621Z,23.9
2018-06-25T17:13:47.715Z,23.7
2018-06-25T17:14:47.765Z,24
2018-06-25T17:15:47.817Z,24.4
2018-06-25T17:16:47.882Z,25.1
2018-06-25T17:17:47.909Z,25.9
2018-06-25T17:18:47.972Z,26.5
2018-06-25T17:19:48.041Z,26.9
2018-06-25T17:20:48.092Z,27.5
2018-06-25T17:21:48.222Z,27.9
2018-06-25T17:22:48.251Z,27.6
2018-06-25T17:23:48.329Z,26.9
2018-06-25T17:24:48.403Z,26.2
2018-06-25T17:25:48.404Z,25.9
2018-06-25T17:26:48.529Z,25.6
2018-06-25T17:27:48.583Z,25.3
2018-06-25T17:28:48.666Z,25
2018-06-25T17:29:48.701Z,24.9
2018-06-25T17:30:48.752Z,24.7
2018-06-25T17:31:48.812Z,24.6
2018-06-25T17:32:48.872Z,24.5
2018-06-25T17:33:49.031Z,24.4
2018-06-25T17:34:49.028Z,24.3
2018-06-25T17:35:49.056Z,23.9
2018-06-25T17:36:49.109Z,23.6
2018-06-25T17:37:49.179Z,23.4
2018-06-25T17:38:49.237Z,23.3
2018-06-25T17:39:49.327Z,23
2018-06-25T17:40:49.366Z,22.9
2018-06-25T17:41:49.465Z,22.6
2018-06-25T17:43:50.970Z,22.4
2018-06-25T17:44:50.944Z,22.2
2018-06-25T17:45:51.007Z,22.1
2018-06-25T17:46:51.097Z,22
2018-06-25T17:47:51.218Z,21.8
2018-06-25T17:48:51.210Z,21.6
2018-06-25T17:49:51.299Z,21.4
2018-06-25T17:50:51.379Z,21.2
2018-06-25T17:51:51.424Z,21
2018-06-25T17:52:51.735Z,20.9
2018-06-25T17:53:51.563Z,20.6
2018-06-25T17:54:51.625Z,20.5
2018-06-25T17:55:51.688Z,20.4
2018-06-25T17:56:51.729Z,20.3
2018-06-25T17:58:51.906Z,20.1
2018-06-25T18:00:51.979Z,20
2018-06-25T18:01:52.208Z,19.9
2018-06-25T18:02:52.264Z,19.8
2018-06-25T18:03:52.341Z,19.6
2018-06-25T18:04:52.389Z,19.5
2018-06-25T18:05:52.413Z,19.4
2018-06-25T18:07:52.572Z,19.3
2018-06-25T18:23:53.703Z,19.4
2018-06-25T18:24:53.763Z,19.3
2018-06-25T18:25:54.371Z,19.4
2018-06-25T18:26:54.617Z,19.3
2018-06-25T18:28:54.689Z,19.1
2018-06-25T18:30:54.860Z,19
2018-06-25T18:31:54.882Z,18.9
2018-06-25T18:33:55.052Z,18.8
2018-06-25T18:35:55.179Z,18.6
2018-06-25T18:37:55.251Z,18.5
2018-06-25T18:39:55.430Z,18.4
2018-06-25T18:41:55.533Z,18.3
2018-06-25T18:44:55.728Z,18.1
2018-06-25T18:47:55.866Z,18
2018-06-25T18:52:56.173Z,17.9
2018-06-25T18:59:56.607Z,17.8
2018-06-25T19:03:56.860Z,17.6
2018-06-25T19:09:57.255Z,17.5
2018-06-25T19:15:57.663Z,17.4
2018-06-25T19:20:57.949Z,17.2
2018-06-25T19:27:58.426Z,17.1
2018-06-25T19:37:58.945Z,17
2018-06-25T19:45:59.511Z,16.9
2018-06-25T19:51:59.813Z,16.8
2018-06-25T19:53:59.956Z,16.9
2018-06-25T19:55:00.008Z,16.8
2018-06-25T20:03:01.477Z,16.6
2018-06-25T20:16:01.303Z,16.5
2018-06-25T20:30:02.156Z,16.4
2018-06-25T20:35:02.546Z,16.3
2018-06-25T20:39:02.755Z,16.1
2018-06-25T20:46:03.167Z,16
2018-06-25T20:51:03.539Z,15.9
2018-06-25T20:55:03.758Z,15.8
2018-06-25T21:00:04.072Z,15.6
2018-06-25T21:04:04.344Z,15.5
2018-06-25T21:08:04.544Z,15.4
2018-06-25T21:13:04.852Z,15.3
2018-06-25T21:20:05.308Z,15.1
2018-06-25T21:33:06.113Z,15
2018-06-25T21:44:06.792Z,14.9
2018-06-25T21:53:07.579Z,14.7
2018-06-25T22:06:08.096Z,14.6
2018-06-25T22:16:08.746Z,14.5
2018-06-25T22:27:09.487Z,14.4
2018-06-25T22:41:10.289Z,14.3
2018-06-25T22:52:10.974Z,14.1
2018-06-25T23:02:11.548Z,14
2018-06-25T23:15:12.343Z,13.9
2018-06-25T23:31:13.373Z,13.8
2018-06-25T23:40:13.895Z,13.6
2018-06-25T23:47:14.366Z,13.5
2018-06-25T23:51:14.597Z,13.4
2018-06-25T23:54:14.741Z,13.3
2018-06-25T23:57:14.935Z,13.1
